Time;durP1;ratioP1;P1;durP2;ratioP2;P2;SDS_P1;SDS_P2;PMS_P1;PMS_P2;Temp;Humidity;BMP_temperature;BMP_pressure;BME280_temperature;BME280_humidity;BME280_pressure;Samples;Min_cycle;Max_cycle;Signal;HPM_P1;HPM_P2
2023/10/20 00:00:51;;;;;;;17.38;13.75;;;;;;;14.00;100.00;98475.72;4992700;28;20061;-47
2023/10/20 00:03:17;;;;;;;16.65;14.10;;;;;;;13.99;100.00;98482.94;4991243;28;20064;-47
2023/10/20 00:05:42;;;;;;;17.77;13.88;;;;;;;13.98;100.00;98477.78;4992650;28;20029;-48
2023/10/20 00:08:08;;;;;;;17.20;14.00;;;;;;;13.99;100.00;98480.25;4997755;28;20060;-47
2023/10/20 00:10:36;;;;;;;19.75;14.50;;;;;;;14.00;100.00;98478.41;4994974;28;20031;-48
2023/10/20 00:13:03;;;;;;;16.63;14.13;;;;;;;13.98;100.00;98467.91;4991648;28;20022;-48
2023/10/20 00:15:28;;;;;;;16.20;13.95;;;;;;;13.96;100.00;98453.97;4995877;28;20041;-48
2023/10/20 00:17:54;;;;;;;18.80;14.20;;;;;;;13.96;100.00;98451.28;4992201;28;20018;-47
2023/10/20 00:20:19;;;;;;;16.92;14.18;;;;;;;13.97;100.00;98452.09;4994821;28;20513;-47
2023/10/20 00:22:45;;;;;;;15.88;13.50;;;;;;;13.95;100.00;98443.47;4991758;28;20030;-47
2023/10/20 00:25:11;;;;;;;16.45;14.75;;;;;;;13.96;100.00;98442.47;4992844;28;20018;-47
2023/10/20 00:27:37;;;;;;;18.55;14.65;;;;;;;13.96;100.00;98429.94;4992438;28;20038;-48
2023/10/20 00:30:02;;;;;;;15.70;14.02;;;;;;;13.95;100.00;98432.81;4993694;28;20042;-47
2023/10/20 00:32:30;;;;;;;18.95;14.02;;;;;;;13.94;100.00;98421.31;4995447;28;20030;-47
2023/10/20 00:34:55;;;;;;;20.38;15.98;;;;;;;13.96;100.00;98423.78;4993191;28;20118;-47
2023/10/20 00:37:21;;;;;;;16.47;14.63;;;;;;;13.94;100.00;98405.31;4992359;28;20497;-48
2023/10/20 00:39:46;;;;;;;19.85;15.13;;;;;;;13.94;100.00;98399.13;4993429;28;20289;-47
2023/10/20 00:42:12;;;;;;;18.23;15.27;;;;;;;13.93;100.00;98384.97;4993150;28;20038;-47
2023/10/20 00:44:38;;;;;;;19.83;14.98;;;;;;;13.90;100.00;98377.38;4992989;28;20309;-47
2023/10/20 00:47:04;;;;;;;20.10;15.05;;;;;;;13.91;100.00;98375.53;4990025;28;20499;-48
2023/10/20 00:49:29;;;;;;;17.15;14.98;;;;;;;13.92;100.00;98377.16;4992193;28;20035;-48
2023/10/20 00:51:54;;;;;;;18.88;14.38;;;;;;;13.91;100.00;98375.53;5006883;28;20021;-48
2023/10/20 00:54:20;;;;;;;16.60;14.90;;;;;;;13.92;100.00;98374.50;4997179;28;20030;-47
2023/10/20 00:56:47;;;;;;;16.92;14.88;;;;;;;13.92;100.00;98364.63;4996011;28;20029;-46
2023/10/20 00:59:12;;;;;;;17.23;13.88;;;;;;;13.91;100.00;98357.66;4994315;28;20046;-46
2023/10/20 01:01:38;;;;;;;16.35;14.43;;;;;;;13.91;100.00;98359.53;4997201;28;20022;-48
2023/10/20 01:04:03;;;;;;;16.75;14.55;;;;;;;13.92;100.00;98358.47;4999521;28;20089;-46
2023/10/20 01:06:29;;;;;;;17.73;14.00;;;;;;;13.91;100.00;98349.66;4996022;28;20031;-46
2023/10/20 01:08:58;;;;;;;16.33;14.00;;;;;;;13.91;100.00;98354.19;4995878;28;20036;-46
2023/10/20 01:11:23;;;;;;;18.48;14.25;;;;;;;13.93;100.00;98347.63;4992912;28;20080;-47
2023/10/20 01:13:49;;;;;;;16.77;14.65;;;;;;;13.92;100.00;98339.81;4995946;28;20426;-46
2023/10/20 01:16:14;;;;;;;18.23;15.32;;;;;;;13.92;100.00;98331.81;4995357;28;20053;-48
2023/10/20 01:18:39;;;;;;;18.77;15.30;;;;;;;13.92;100.00;98323.78;4997236;28;20579;-46
2023/10/20 01:21:05;;;;;;;16.65;14.50;;;;;;;13.92;100.00;98316.59;4996259;28;20030;-46
2023/10/20 01:23:30;;;;;;;17.50;15.50;;;;;;;13.91;100.00;98306.97;4995890;28;20038;-46
2023/10/20 01:25:56;;;;;;;18.33;15.02;;;;;;;13.92;100.00;98311.25;4995094;28;20035;-46
2023/10/20 01:28:22;;;;;;;17.02;15.13;;;;;;;13.94;100.00;98309.25;5032438;28;20031;-46
2023/10/20 01:30:48;;;;;;;17.52;15.65;;;;;;;13.93;100.00;98301.44;5017627;28;20051;-46
2023/10/20 01:33:13;;;;;;;16.38;14.68;;;;;;;13.93;100.00;98301.44;4997247;28;20054;-46
2023/10/20 01:35:39;;;;;;;19.52;15.18;;;;;;;13.92;100.00;98305.13;5010764;28;20473;-46
2023/10/20 01:38:04;;;;;;;19.40;15.52;;;;;;;13.92;100.00;98305.13;4997735;28;20030;-47
2023/10/20 01:40:29;;;;;;;17.75;15.07;;;;;;;13.92;100.00;98311.25;5001823;28;20025;-45
2023/10/20 01:42:55;;;;;;;19.13;15.25;;;;;;;13.91;100.00;98303.50;4995030;28;20022;-46
2023/10/20 01:45:20;;;;;;;18.17;15.52;;;;;;;13.90;100.00;98310.66;5004415;28;20416;-46
2023/10/20 01:47:46;;;;;;;18.35;14.90;;;;;;;13.91;100.00;98298.16;4998235;28;20112;-46
2023/10/20 01:50:12;;;;;;;18.77;15.47;;;;;;;13.90;100.00;98286.63;4998237;28;20030;-46
2023/10/20 01:52:37;;;;;;;18.00;16.00;;;;;;;13.89;100.00;98290.34;4998096;28;20308;-46
2023/10/20 01:55:03;;;;;;;17.77;15.88;;;;;;;13.89;100.00;98290.34;5001408;28;20108;-46
2023/10/20 01:57:28;;;;;;;17.48;14.82;;;;;;;13.87;100.00;98282.53;4998165;28;20037;-46
2023/10/20 01:59:54;;;;;;;18.20;15.75;;;;;;;13.88;100.00;98280.69;4999897;28;20049;-46
2023/10/20 02:02:20;;;;;;;17.90;15.23;;;;;;;13.86;100.00;98262.22;5012535;28;20465;-46
2023/10/20 02:04:46;;;;;;;18.98;16.98;;;;;;;13.85;100.00;98255.22;4999821;28;20058;-46
2023/10/20 02:07:12;;;;;;;19.55;17.02;;;;;;;13.82;100.00;98252.97;5000536;28;20038;-45
2023/10/20 02:09:37;;;;;;;19.98;16.38;;;;;;;13.83;100.00;98243.13;5000358;28;20026;-47
2023/10/20 02:12:04;;;;;;;20.33;16.25;;;;;;;13.81;100.00;98235.31;5001427;28;20126;-46
2023/10/20 02:14:30;;;;;;;18.88;16.13;;;;;;;13.84;100.00;98239.44;5001746;28;20045;-46
2023/10/20 02:16:56;;;;;;;20.05;16.38;;;;;;;13.83;100.00;98241.25;4999694;28;20021;-47
2023/10/20 02:19:21;;;;;;;18.83;16.80;;;;;;;13.85;100.00;98236.53;4999653;28;20400;-46
2023/10/20 02:21:47;;;;;;;19.75;16.98;;;;;;;13.85;100.00;98233.88;5001498;28;20030;-46
2023/10/20 02:24:12;;;;;;;20.35;17.08;;;;;;;13.87;100.00;98228.34;4999640;28;20124;-45
2023/10/20 02:26:38;;;;;;;18.70;16.55;;;;;;;13.84;100.00;98221.56;5016161;28;20037;-46
2023/10/20 02:29:03;;;;;;;20.77;17.35;;;;;;;13.85;100.00;98215.19;4998863;28;20468;-46
2023/10/20 02:31:28;;;;;;;20.63;17.25;;;;;;;13.87;100.00;98207.84;4997825;28;20034;-45
2023/10/20 02:33:54;;;;;;;19.17;17.10;;;;;;;13.88;100.00;98204.13;5000406;28;20037;-46
2023/10/20 02:36:21;;;;;;;19.10;16.83;;;;;;;13.87;100.00;98202.50;5010668;28;20123;-46
2023/10/20 02:38:53;;;;;;;19.55;17.45;;;;;;;13.88;100.00;98190.78;4997253;28;20042;-46
2023/10/20 02:41:19;;;;;;;21.45;17.23;;;;;;;13.88;100.00;98189.97;5000681;28;20033;-46
2023/10/20 02:43:44;;;;;;;18.90;16.75;;;;;;;13.89;100.00;98186.28;4997008;28;20093;-45
2023/10/20 02:46:12;;;;;;;22.00;17.52;;;;;;;13.88;100.00;98182.78;5001136;28;20042;-46
2023/10/20 02:48:37;;;;;;;19.73;17.30;;;;;;;13.89;100.00;98180.94;5000782;28;20472;-46
2023/10/20 02:51:14;;;;;;;18.80;16.80;;;;;;;13.92;100.00;98169.03;5002911;28;20052;-46
2023/10/20 02:53:40;;;;;;;21.80;17.27;;;;;;;13.91;100.00;98157.53;5000105;28;20026;-46
2023/10/20 02:56:12;;;;;;;20.90;17.10;;;;;;;13.91;100.00;98152.22;4997407;28;20034;-47
2023/10/20 02:58:39;;;;;;;19.52;17.00;;;;;;;13.92;100.00;98153.03;5000725;28;20048;-46
2023/10/20 03:01:05;;;;;;;19.85;17.75;;;;;;;13.92;100.00;98153.84;4996766;28;20018;-46
2023/10/20 03:03:31;;;;;;;19.25;16.27;;;;;;;13.94;100.00;98145.63;4995241;28;20054;-46
2023/10/20 03:05:56;;;;;;;19.50;16.63;;;;;;;13.94;100.00;98134.94;5000591;28;20054;-46
2023/10/20 03:08:22;;;;;;;18.30;16.27;;;;;;;13.96;100.00;98114.25;4997182;28;20301;-47
2023/10/20 03:10:47;;;;;;;18.33;16.35;;;;;;;13.96;100.00;98109.72;5000554;28;20453;-47
2023/10/20 03:13:13;;;;;;;18.92;16.67;;;;;;;13.96;100.00;98108.91;4999480;28;20022;-47
2023/10/20 03:15:38;;;;;;;19.65;17.40;;;;;;;13.96;100.00;98115.06;5000890;28;20135;-46
2023/10/20 03:18:04;;;;;;;19.90;16.63;;;;;;;13.97;100.00;98121.19;4995563;28;20112;-47
2023/10/20 03:20:30;;;;;;;17.40;15.57;;;;;;;13.99;100.00;98124.47;5003395;28;20060;-45
2023/10/20 03:22:55;;;;;;;18.40;15.93;;;;;;;13.98;100.00;98118.31;4997561;28;20376;-47
2023/10/20 03:25:21;;;;;;;17.38;15.63;;;;;;;14.00;100.00;98118.13;5001033;28;20163;-46
2023/10/20 03:27:47;;;;;;;20.52;15.70;;;;;;;14.00;100.00;98116.25;4996196;28;20030;-47
2023/10/20 03:30:15;;;;;;;18.23;16.33;;;;;;;13.98;100.00;98109.50;5000582;28;20024;-46
2023/10/20 03:32:40;;;;;;;19.70;16.92;;;;;;;13.99;100.00;98097.78;4994967;28;20595;-46
2023/10/20 03:35:07;;;;;;;17.95;16.15;;;;;;;13.99;100.00;98087.13;5014085;28;20083;-46
2023/10/20 03:37:32;;;;;;;19.13;17.13;;;;;;;13.98;100.00;98086.31;4998977;28;20029;-47
2023/10/20 03:39:57;;;;;;;19.83;17.13;;;;;;;13.99;100.00;98084.44;4998428;28;20107;-46
2023/10/20 03:42:23;;;;;;;19.73;17.73;;;;;;;13.99;100.00;98081.78;4997242;28;20115;-46
2023/10/20 03:44:48;;;;;;;20.27;17.13;;;;;;;13.98;100.00;98090.84;4999455;28;20049;-47
2023/10/20 03:47:15;;;;;;;18.52;16.63;;;;;;;13.96;100.00;98090.22;5004021;28;20042;-46
2023/10/20 03:49:41;;;;;;;19.10;17.10;;;;;;;13.96;100.00;98091.03;4995545;28;20113;-46
2023/10/20 03:52:07;;;;;;;20.35;18.00;;;;;;;13.94;100.00;98085.09;4999095;28;20388;-46
2023/10/20 03:54:33;;;;;;;21.40;17.60;;;;;;;13.95;100.00;98060.03;5012101;28;20026;-46
2023/10/20 03:56:59;;;;;;;20.50;17.55;;;;;;;13.94;100.00;98057.56;4997177;28;20476;-46
2023/10/20 03:59:24;;;;;;;19.70;17.58;;;;;;;13.92;100.00;98048.97;4997306;28;20076;-47
2023/10/20 04:01:51;;;;;;;20.48;18.23;;;;;;;13.92;100.00;98070.31;5002787;28;20473;-46
2023/10/20 04:04:17;;;;;;;21.38;17.27;;;;;;;13.89;100.00;98058.22;4998157;28;20037;-47
2023/10/20 04:06:44;;;;;;;21.88;18.65;;;;;;;13.88;100.00;98060.03;4998986;28;20033;-46
2023/10/20 04:09:09;;;;;;;20.00;17.90;;;;;;;13.87;100.00;98060.25;4996613;28;20454;-47
2023/10/20 04:11:36;;;;;;;21.35;18.48;;;;;;;13.87;100.00;98047.75;4996994;28;20113;-47
2023/10/20 04:14:05;;;;;;;20.30;17.75;;;;;;;13.87;100.00;98030.91;5002812;28;20301;-47
2023/10/20 04:16:31;;;;;;;23.45;17.92;;;;;;;13.86;100.00;98030.09;4994314;28;20060;-45
2023/10/20 04:18:58;;;;;;;21.50;18.70;;;;;;;13.86;100.00;98029.28;4998529;28;20026;-46
2023/10/20 04:21:25;;;;;;;22.40;17.30;;;;;;;13.84;100.00;98018.00;5000653;28;20464;-47
2023/10/20 04:23:50;;;;;;;21.13;18.23;;;;;;;13.83;100.00;98000.34;4996385;28;20109;-47
2023/10/20 04:26:20;;;;;;;21.48;18.45;;;;;;;13.81;100.00;98000.53;4997074;28;20524;-46
2023/10/20 04:28:47;;;;;;;19.63;17.52;;;;;;;13.82;100.00;97996.03;5003085;28;20033;-48
2023/10/20 04:50:47;;;;;;;21.83;17.83;;;;;;;13.81;100.00;97938.38;4996207;28;20491;-46
2023/10/20 04:58:35;;;;;;;21.65;18.80;;;;;;;13.81;100.00;97935.72;5000379;28;20117;-48
2023/10/20 05:01:27;;;;;;;24.30;18.95;;;;;;;13.80;100.00;97928.72;4999896;28;20029;-47
2023/10/20 05:03:55;;;;;;;22.23;18.33;;;;;;;13.79;100.00;97903.06;4996578;28;20030;-46
2023/10/20 05:06:22;;;;;;;21.88;18.95;;;;;;;13.79;100.00;97903.06;4994693;28;20080;-46
2023/10/20 05:08:48;;;;;;;21.08;18.77;;;;;;;13.78;100.00;97896.13;4997918;28;20026;-46
2023/10/20 05:11:14;;;;;;;21.95;19.05;;;;;;;13.78;100.00;97896.13;4998057;28;20033;-45
2023/10/20 05:13:39;;;;;;;21.88;19.42;;;;;;;13.76;100.00;97895.50;4996759;28;20388;-45
2023/10/20 05:16:04;;;;;;;21.13;18.08;;;;;;;13.75;100.00;97899.19;4997368;28;20027;-46
2023/10/20 05:18:31;;;;;;;21.55;18.45;;;;;;;13.74;100.00;97895.72;4999226;28;20030;-47
2023/10/20 05:20:56;;;;;;;21.63;19.08;;;;;;;13.74;100.00;97879.72;4998372;28;20041;-46
2023/10/20 05:23:21;;;;;;;21.10;18.80;;;;;;;13.73;100.00;97880.72;4995732;28;20116;-45
2023/10/20 05:25:48;;;;;;;22.60;20.20;;;;;;;13.73;100.00;97882.59;4996819;28;20034;-45
2023/10/20 05:28:15;;;;;;;22.95;19.52;;;;;;;13.72;100.00;97873.75;5001953;28;20030;-45
2023/10/20 05:30:42;;;;;;;22.42;20.17;;;;;;;13.72;100.00;97870.28;5003860;28;20037;-45
2023/10/20 05:33:09;;;;;;;24.17;19.83;;;;;;;13.71;100.00;97882.81;5002697;28;21001;-45
2023/10/20 05:35:34;;;;;;;23.52;21.02;;;;;;;13.74;100.00;97892.22;5001774;28;20034;-45
2023/10/20 05:37:59;;;;;;;22.88;20.27;;;;;;;13.74;100.00;97892.22;5004009;28;20074;-45
2023/10/20 05:40:25;;;;;;;23.20;20.77;;;;;;;13.74;100.00;97890.38;5003128;28;20034;-45
2023/10/20 05:42:50;;;;;;;23.73;21.25;;;;;;;13.74;100.00;97898.38;4998257;28;20349;-45
2023/10/20 05:45:20;;;;;;;24.83;21.70;;;;;;;13.75;100.00;97880.53;4996300;28;20460;-45
2023/10/20 05:47:46;;;;;;;23.17;20.77;;;;;;;13.75;100.00;97876.00;4999376;28;20026;-47
2023/10/20 05:50:11;;;;;;;24.02;21.45;;;;;;;13.77;100.00;97881.97;5003173;28;20057;-45
2023/10/20 05:52:37;;;;;;;24.52;22.05;;;;;;;13.79;100.00;97877.22;4995457;28;20808;-45
2023/10/20 05:55:03;;;;;;;24.83;22.23;;;;;;;13.77;100.00;97878.47;4997875;28;20022;-45
2023/10/20 05:57:29;;;;;;;24.00;21.55;;;;;;;13.76;100.00;97869.66;4999419;28;20025;-45
2023/10/20 05:59:54;;;;;;;24.50;22.08;;;;;;;13.78;100.00;97861.44;5000507;28;20023;-45
2023/10/20 06:02:20;;;;;;;28.05;22.95;;;;;;;13.79;100.00;97858.56;4998279;28;20033;-45
2023/10/20 06:04:45;;;;;;;26.42;21.98;;;;;;;13.80;100.00;97859.38;4993891;28;20045;-45
2023/10/20 06:07:11;;;;;;;26.27;22.98;;;;;;;13.79;100.00;97853.22;4998825;28;20026;-47
2023/10/20 06:09:36;;;;;;;24.77;22.17;;;;;;;13.82;100.00;97851.97;4997307;28;20038;-47
2023/10/20 06:12:03;;;;;;;26.30;23.60;;;;;;;13.80;100.00;97846.84;5019535;28;20110;-47
2023/10/20 06:14:30;;;;;;;25.45;22.90;;;;;;;13.77;100.00;97843.78;4990599;28;20082;-48
2023/10/20 06:16:56;;;;;;;25.48;22.95;;;;;;;13.75;100.00;97864.53;5004241;28;20030;-48
2023/10/20 06:19:21;;;;;;;24.95;22.42;;;;;;;13.75;100.00;97873.34;5003827;28;20033;-48
2023/10/20 06:21:46;;;;;;;24.48;21.92;;;;;;;13.71;100.00;97874.00;4998277;28;20369;-48
2023/10/20 06:24:13;;;;;;;25.05;22.45;;;;;;;13.71;100.00;97868.66;4998908;28;20038;-50
2023/10/20 06:26:38;;;;;;;25.10;22.40;;;;;;;13.67;100.00;97844.22;4997692;28;20057;-48
2023/10/20 06:29:23;;;;;;;26.33;22.33;;;;;;;13.64;100.00;97842.00;4999877;28;20026;-49
2023/10/20 06:31:57;;;;;;;23.73;21.30;;;;;;;13.61;100.00;97845.09;5003906;28;20031;-47
2023/10/20 06:34:23;;;;;;;23.60;21.20;;;;;;;13.59;100.00;97844.47;5010384;28;20065;-48
2023/10/20 06:37:01;;;;;;;24.55;21.35;;;;;;;13.58;100.00;97856.19;5002100;28;20383;-48
2023/10/20 06:39:27;;;;;;;23.05;20.65;;;;;;;13.56;100.00;97852.91;4994607;28;20122;-48
2023/10/20 06:41:52;;;;;;;23.92;21.45;;;;;;;13.55;100.00;97862.75;4998985;28;20448;-49
2023/10/20 06:44:18;;;;;;;27.38;22.13;;;;;;;13.54;100.00;97858.44;5009302;28;20104;-48
2023/10/20 06:46:43;;;;;;;23.60;21.23;;;;;;;13.51;100.00;97848.19;5000150;28;20049;-49
2023/10/20 06:49:08;;;;;;;24.77;22.13;;;;;;;13.50;100.00;97838.56;4995588;28;20542;-50
2023/10/20 06:51:33;;;;;;;24.67;22.02;;;;;;;13.50;100.00;97833.22;5004004;28;20109;-48
2023/10/20 06:53:59;;;;;;;25.53;22.70;;;;;;;13.48;100.00;97836.09;4994612;28;20391;-48
2023/10/20 06:56:24;;;;;;;25.05;22.45;;;;;;;13.49;100.00;97834.25;4996750;28;20274;-49
2023/10/20 06:58:50;;;;;;;26.50;23.90;;;;;;;13.46;100.00;97840.81;4994777;28;20034;-48
2023/10/20 07:01:15;;;;;;;26.80;24.10;;;;;;;13.47;100.00;97836.31;4996212;28;20097;-49
2023/10/20 07:03:40;;;;;;;26.45;23.67;;;;;;;13.45;100.00;97838.38;4995491;28;20034;-51
2023/10/20 07:06:10;;;;;;;26.85;24.02;;;;;;;13.43;100.00;97840.44;5001354;28;20446;-51
2023/10/20 07:08:36;;;;;;;26.95;24.10;;;;;;;13.41;100.00;97834.50;4992895;28;20084;-49
2023/10/20 07:11:03;;;;;;;26.15;23.63;;;;;;;13.40;100.00;97836.31;5000089;28;20430;-49
2023/10/20 07:13:31;;;;;;;25.13;22.73;;;;;;;13.40;100.00;97832.84;4998370;28;20026;-49
2023/10/20 07:15:57;;;;;;;23.52;21.27;;;;;;;13.39;100.00;97832.03;4996249;28;20117;-49
2023/10/20 07:18:23;;;;;;;24.58;22.20;;;;;;;13.38;100.00;97832.25;4998450;28;20042;-49
2023/10/20 07:20:48;;;;;;;24.02;21.60;;;;;;;13.37;100.00;97833.25;4996259;28;20499;-52
2023/10/20 07:23:13;;;;;;;23.45;21.10;;;;;;;13.38;100.00;97837.56;4996502;28;20038;-51
2023/10/20 07:25:38;;;;;;;23.10;20.80;;;;;;;13.38;100.00;97824.25;4994025;28;20486;-50
2023/10/20 07:28:04;;;;;;;22.47;20.27;;;;;;;13.38;100.00;97830.38;4996955;28;20445;-53
2023/10/20 07:30:30;;;;;;;22.77;20.58;;;;;;;13.37;100.00;97826.06;5002013;28;20277;-50
2023/10/20 07:32:55;;;;;;;22.40;19.33;;;;;;;13.37;100.00;97820.75;4992321;28;20130;-49
2023/10/20 07:35:21;;;;;;;21.80;19.73;;;;;;;13.38;100.00;97826.91;4997171;28;20058;-50
2023/10/20 07:37:46;;;;;;;20.75;18.75;;;;;;;13.38;100.00;97822.41;4997291;28;20033;-50
2023/10/20 07:40:13;;;;;;;21.40;19.40;;;;;;;13.39;100.00;97823.19;4998044;28;20019;-50
2023/10/20 07:42:39;;;;;;;22.00;19.58;;;;;;;13.40;100.00;97822.19;4998176;28;20081;-49
2023/10/20 07:45:06;;;;;;;21.10;19.10;;;;;;;13.39;100.00;97813.38;4997917;28;20413;-49
2023/10/20 07:47:32;;;;;;;22.88;19.65;;;;;;;13.40;100.00;97823.00;4990232;28;20404;-50
2023/10/20 07:49:57;;;;;;;21.23;19.10;;;;;;;13.40;100.00;97807.00;4999217;28;20028;-50
2023/10/20 07:52:23;;;;;;;19.77;17.83;;;;;;;13.39;100.00;97807.22;4995570;28;20037;-50
2023/10/20 07:54:48;;;;;;;18.63;16.83;;;;;;;13.40;100.00;97799.00;4993393;28;20021;-52
2023/10/20 07:57:14;;;;;;;18.73;16.73;;;;;;;13.39;100.00;97800.06;4994053;28;20615;-48
2023/10/20 07:59:39;;;;;;;18.27;16.48;;;;;;;13.38;100.00;97787.75;5000430;28;20026;-50
2023/10/20 08:02:05;;;;;;;17.33;15.73;;;;;;;13.37;100.00;97780.75;4997329;28;20022;-48
2023/10/20 08:04:32;;;;;;;17.08;15.38;;;;;;;13.38;100.00;97785.06;5001396;28;20026;-49
2023/10/20 08:06:59;;;;;;;16.58;14.93;;;;;;;13.37;100.00;97779.94;4991817;28;20015;-50
2023/10/20 08:09:25;;;;;;;18.10;15.27;;;;;;;13.38;100.00;97784.25;5002099;28;20034;-49
2023/10/20 08:11:50;;;;;;;16.13;14.57;;;;;;;13.36;100.00;97776.47;4994793;28;20045;-51
2023/10/20 08:14:16;;;;;;;15.55;13.57;;;;;;;13.37;100.00;97780.75;4996532;28;20030;-51
2023/10/20 08:16:41;;;;;;;16.35;13.57;;;;;;;13.36;100.00;97787.13;4994686;28;20476;-50
2023/10/20 08:19:07;;;;;;;14.23;12.70;;;;;;;13.37;100.00;97783.41;4997089;28;20175;-50
2023/10/20 08:21:33;;;;;;;13.55;12.25;;;;;;;13.37;100.00;97790.63;4996533;28;20034;-52
2023/10/20 08:23:58;;;;;;;14.00;12.60;;;;;;;13.36;100.00;97784.47;4992910;28;20042;-51
2023/10/20 08:26:24;;;;;;;12.20;11.00;;;;;;;13.35;100.00;97785.50;4999161;28;20032;-51
2023/10/20 08:28:50;;;;;;;12.13;10.85;;;;;;;13.36;100.00;97789.81;4997248;28;20447;-50
2023/10/20 08:31:17;;;;;;;11.07;9.88;;;;;;;13.32;100.00;97789.41;4994917;28;20045;-50
2023/10/20 08:33:44;;;;;;;11.65;9.73;;;;;;;13.33;100.00;97791.03;4999983;28;20027;-51
2023/10/20 08:36:14;;;;;;;10.75;9.70;;;;;;;13.32;100.00;97793.91;4993584;28;20023;-50
2023/10/20 08:38:45;;;;;;;11.70;9.13;;;;;;;13.30;100.00;97790.59;4999893;28;20052;-50
2023/10/20 08:41:13;;;;;;;9.10;8.25;;;;;;;13.30;100.00;97796.75;4997718;28;20029;-50
2023/10/20 08:43:40;;;;;;;8.93;8.07;;;;;;;13.30;100.00;97788.75;4995742;28;20018;-50
2023/10/20 08:46:08;;;;;;;8.63;7.82;;;;;;;13.29;100.00;97783.66;4992781;28;20461;-50
2023/10/20 08:48:34;;;;;;;8.00;7.30;;;;;;;13.27;100.00;97783.88;4994922;28;20029;-50
2023/10/20 08:51:01;;;;;;;8.73;7.82;;;;;;;13.26;100.00;97779.56;4992839;28;20145;-50
2023/10/20 08:53:31;;;;;;;8.52;7.63;;;;;;;13.25;100.00;97783.22;4987317;28;20030;-52
2023/10/20 08:55:56;;;;;;;8.15;7.22;;;;;;;13.25;100.00;97787.75;4999311;28;20034;-50
2023/10/20 08:58:22;;;;;;;7.68;6.10;;;;;;;13.24;100.00;97784.28;4971875;28;20050;-50
2023/10/20 09:00:48;;;;;;;7.18;6.47;;;;;;;13.23;100.00;97774.63;4998680;28;20033;-50
2023/10/20 09:03:13;;;;;;;7.13;6.40;;;;;;;13.23;100.00;97779.16;4994447;28;20036;-53
2023/10/20 09:05:39;;;;;;;6.47;5.88;;;;;;;13.22;100.00;97772.19;4987328;28;20084;-49
2023/10/20 09:08:04;;;;;;;6.47;5.88;;;;;;;13.21;100.00;97783.88;4996600;28;20021;-50
2023/10/20 09:10:30;;;;;;;7.38;6.68;;;;;;;13.20;100.00;97775.06;4991570;28;20374;-50
2023/10/20 09:12:55;;;;;;;15.10;7.50;;;;;;;13.18;100.00;97781.63;4994776;28;20044;-50
2023/10/20 09:15:21;;;;;;;7.47;6.70;;;;;;;13.14;100.00;97782.03;4992967;28;20034;-49
2023/10/20 09:17:53;;;;;;;7.45;6.43;;;;;;;13.13;100.00;97782.25;4992162;28;20023;-50
2023/10/20 09:20:19;;;;;;;7.35;5.05;;;;;;;13.08;100.00;97774.88;4996952;28;20057;-50
2023/10/20 09:22:45;;;;;;;6.55;5.60;;;;;;;13.05;100.00;97763.81;4994309;28;20536;-50
2023/10/20 09:25:11;;;;;;;5.32;4.85;;;;;;;13.01;100.00;97758.09;4989639;28;20030;-50
2023/10/20 09:27:40;;;;;;;5.78;5.22;;;;;;;13.01;100.00;97759.97;4993958;28;20061;-51
2023/10/20 09:30:09;;;;;;;5.65;5.10;;;;;;;12.99;100.00;97762.00;4996922;28;20026;-51
2023/10/20 09:32:35;;;;;;;6.40;4.78;;;;;;;12.98;100.00;97765.69;4996005;28;20019;-52
2023/10/20 09:35:02;;;;;;;4.80;4.40;;;;;;;12.94;100.00;97767.97;4990928;28;20053;-50
2023/10/20 09:37:29;;;;;;;4.50;4.05;;;;;;;12.91;100.00;97774.53;4995989;28;20026;-50
2023/10/20 09:40:05;;;;;;;4.05;3.72;;;;;;;12.88;100.00;97766.94;4995612;28;20553;-50
2023/10/20 09:42:51;;;;;;;4.78;3.63;;;;;;;12.86;100.00;97773.50;4990488;28;20034;-51
2023/10/20 09:45:21;;;;;;;3.67;3.38;;;;;;;12.85;100.00;97780.66;4988270;28;20110;-49
2023/10/20 09:47:52;;;;;;;3.72;3.33;;;;;;;12.83;100.00;97771.25;5004546;28;20145;-48
2023/10/20 09:50:19;;;;;;;3.80;2.90;;;;;;;12.81;100.00;97766.13;4995086;28;20135;-48
2023/10/20 09:52:45;;;;;;;4.18;3.17;;;;;;;12.78;100.00;97770.03;4991731;28;20025;-49
2023/10/20 09:55:11;;;;;;;5.88;3.08;;;;;;;12.77;100.00;97756.91;4990623;28;20034;-47
2023/10/20 09:57:36;;;;;;;3.50;3.20;;;;;;;12.75;100.00;97759.78;4994744;28;20357;-47
2023/10/20 10:00:04;;;;;;;3.38;2.80;;;;;;;12.74;100.00;97754.69;4997843;28;20088;-47
2023/10/20 10:02:31;;;;;;;3.00;2.72;;;;;;;12.74;100.00;97768.00;4990376;28;20023;-48
2023/10/20 10:04:57;;;;;;;3.40;3.10;;;;;;;12.72;100.00;97762.88;4993131;28;20018;-48
2023/10/20 10:07:35;;;;;;;4.97;3.00;;;;;;;12.72;100.00;97762.88;4988883;28;20101;-47
2023/10/20 10:10:02;;;;;;;3.20;2.90;;;;;;;12.69;100.00;97760.63;4989537;28;20026;-47
2023/10/20 10:12:28;;;;;;;3.22;2.92;;;;;;;12.69;100.00;97765.13;5012475;28;20026;-46
2023/10/20 10:15:01;;;;;;;3.35;3.05;;;;;;;12.69;100.00;97746.47;5002727;28;20167;-47
2023/10/20 10:17:26;;;;;;;3.20;2.90;;;;;;;12.67;100.00;97757.34;5004186;28;20152;-48
2023/10/20 10:19:53;;;;;;;4.85;2.70;;;;;;;12.69;100.00;97757.13;5001026;28;20147;-48
2023/10/20 10:22:27;;;;;;;3.63;2.80;;;;;;;12.69;100.00;97749.97;5001633;28;20033;-51
2023/10/20 10:24:54;;;;;;;3.72;2.58;;;;;;;12.69;100.00;97743.81;4998461;28;20037;-50
2023/10/20 10:27:22;;;;;;;3.25;2.75;;;;;;;12.70;100.00;97745.47;5005674;28;20439;-50
2023/10/20 10:29:59;;;;;;;3.30;2.38;;;;;;;12.71;100.00;97744.44;5005790;28;20021;-50
2023/10/20 10:32:28;;;;;;;3.28;2.70;;;;;;;12.71;100.00;97739.94;5001950;28;20042;-51
2023/10/20 10:34:54;;;;;;;2.75;2.55;;;;;;;12.73;100.00;97737.06;5005400;28;20031;-51
2023/10/20 10:37:45;;;;;;;2.92;2.67;;;;;;;12.76;100.00;97726.00;5002280;28;20029;-51
2023/10/20 10:40:13;;;;;;;4.97;2.85;;;;;;;12.74;100.00;97722.72;4997160;28;20042;-51
2023/10/20 10:42:43;;;;;;;2.87;2.67;;;;;;;12.75;100.00;97722.50;4998273;28;20025;-53
2023/10/20 10:45:18;;;;;;;2.95;2.75;;;;;;;12.78;100.00;97714.09;4998193;28;20582;-51
2023/10/20 10:47:44;;;;;;;3.08;2.88;;;;;;;12.81;100.00;97717.41;4998155;28;20116;-50
2023/10/20 10:50:09;;;;;;;2.70;2.50;;;;;;;12.84;100.00;97712.47;4998924;28;20109;-51
2023/10/20 10:52:34;;;;;;;3.03;2.72;;;;;;;12.85;100.00;97708.75;4994711;28;20476;-51
2023/10/20 10:55:00;;;;;;;3.15;2.95;;;;;;;12.87;100.00;97701.41;4994215;28;20044;-50
2023/10/20 10:57:25;;;;;;;3.97;2.65;;;;;;;12.89;100.00;97698.50;5004837;28;20057;-51
2023/10/20 10:59:51;;;;;;;2.70;2.50;;;;;;;12.88;100.00;97694.22;4995727;28;20498;-50
2023/10/20 11:02:16;;;;;;;2.53;2.40;;;;;;;12.90;100.00;97689.47;5005466;28;20026;-50
2023/10/20 11:04:42;;;;;;;2.50;2.40;;;;;;;12.88;100.00;97681.69;5001594;28;20030;-49
2023/10/20 11:07:08;;;;;;;3.25;2.33;;;;;;;12.90;100.00;97676.97;4996179;28;20400;-50
2023/10/20 11:09:33;;;;;;;2.78;2.58;;;;;;;12.90;100.00;97673.50;4992498;28;20070;-49
2023/10/20 11:11:58;;;;;;;2.60;2.33;;;;;;;12.91;100.00;97680.47;4996173;28;20038;-50
2023/10/20 11:14:24;;;;;;;3.45;2.70;;;;;;;12.93;100.00;97675.75;4993534;28;20137;-51
2023/10/20 11:16:50;;;;;;;3.20;2.90;;;;;;;12.94;100.00;97675.53;4994599;28;20039;-49
2023/10/20 11:19:17;;;;;;;3.35;3.03;;;;;;;12.95;100.00;97657.69;4997374;28;20030;-51
2023/10/20 11:21:47;;;;;;;3.58;3.00;;;;;;;12.96;100.00;97657.50;5000745;28;20028;-50
2023/10/20 11:24:28;;;;;;;3.47;3.20;;;;;;;13.00;100.00;97652.56;4994284;28;20526;-51
2023/10/20 11:27:11;;;;;;;3.95;3.70;;;;;;;13.03;100.00;97659.31;4992759;28;20033;-50
2023/10/20 11:29:37;;;;;;;4.80;4.32;;;;;;;13.04;100.00;97651.13;4997478;28;20034;-49
2023/10/20 11:32:13;;;;;;;5.25;4.57;;;;;;;13.07;100.00;97649.84;4995830;28;20026;-50
2023/10/20 11:34:39;;;;;;;5.35;4.95;;;;;;;13.08;100.00;97639.00;4996698;28;20539;-51
2023/10/20 11:37:05;;;;;;;5.72;5.20;;;;;;;13.10;100.00;97636.94;4993491;28;20041;-50